sensor_id;sensor_type;location;lat;lon;timestamp;P1;durP1;ratioP1;P2;durP2;ratioP2
16512;SDS011;8369;48.030;11.598;2022-08-18T00:01:16;6.00;;;4.25;;
16512;SDS011;8369;48.030;11.598;2022-08-18T00:03:43;5.22;;;4.60;;
16512;SDS011;8369;48.030;11.598;2022-08-18T00:06:09;5.30;;;3.97;;
16512;SDS011;8369;48.030;11.598;2022-08-18T00:08:35;5.78;;;4.43;;
16512;SDS011;8369;48.030;11.598;2022-08-18T00:11:01;5.30;;;4.40;;
16512;SDS011;8369;48.030;11.598;2022-08-18T00:13:27;5.25;;;4.28;;
16512;SDS011;8369;48.030;11.598;2022-08-18T00:15:53;4.15;;;3.75;;
16512;SDS011;8369;48.030;11.598;2022-08-18T00:18:19;5.65;;;3.90;;
16512;SDS011;8369;48.030;11.598;2022-08-18T00:20:45;6.05;;;4.28;;
16512;SDS011;8369;48.030;11.598;2022-08-18T00:23:10;5.22;;;4.43;;
16512;SDS011;8369;48.030;11.598;2022-08-18T00:25:37;7.07;;;4.88;;
16512;SDS011;8369;48.030;11.598;2022-08-18T00:28:03;4.40;;;4.00;;
16512;SDS011;8369;48.030;11.598;2022-08-18T00:30:29;6.93;;;4.38;;
16512;SDS011;8369;48.030;11.598;2022-08-18T00:32:56;5.00;;;4.47;;
16512;SDS011;8369;48.030;11.598;2022-08-18T00:35:24;4.25;;;3.60;;
16512;SDS011;8369;48.030;11.598;2022-08-18T00:37:53;4.28;;;3.88;;
16512;SDS011;8369;48.030;11.598;2022-08-18T00:40:22;5.07;;;3.97;;
16512;SDS011;8369;48.030;11.598;2022-08-18T00:42:56;4.65;;;3.90;;
16512;SDS011;8369;48.030;11.598;2022-08-18T00:45:27;6.65;;;4.25;;
16512;SDS011;8369;48.030;11.598;2022-08-18T00:47:56;4.85;;;3.88;;
16512;SDS011;8369;48.030;11.598;2022-08-18T00:50:27;5.93;;;4.00;;
16512;SDS011;8369;48.030;11.598;2022-08-18T00:52:59;5.60;;;4.32;;
16512;SDS011;8369;48.030;11.598;2022-08-18T00:55:29;5.03;;;3.97;;
16512;SDS011;8369;48.030;11.598;2022-08-18T00:58:06;4.82;;;3.70;;
16512;SDS011;8369;48.030;11.598;2022-08-18T01:00:36;4.63;;;4.20;;
16512;SDS011;8369;48.030;11.598;2022-08-18T01:03:03;5.07;;;4.57;;
16512;SDS011;8369;48.030;11.598;2022-08-18T01:05:37;4.70;;;4.07;;
16512;SDS011;8369;48.030;11.598;2022-08-18T01:08:08;6.88;;;4.47;;
16512;SDS011;8369;48.030;11.598;2022-08-18T01:10:38;6.68;;;4.68;;
16512;SDS011;8369;48.030;11.598;2022-08-18T01:13:04;5.15;;;4.63;;
16512;SDS011;8369;48.030;11.598;2022-08-18T01:15:30;4.78;;;4.05;;
16512;SDS011;8369;48.030;11.598;2022-08-18T01:17:58;4.85;;;4.35;;
16512;SDS011;8369;48.030;11.598;2022-08-18T01:20:59;5.85;;;4.20;;
16512;SDS011;8369;48.030;11.598;2022-08-18T01:24:06;4.25;;;3.85;;
16512;SDS011;8369;48.030;11.598;2022-08-18T01:26:34;7.05;;;3.97;;
16512;SDS011;8369;48.030;11.598;2022-08-18T01:29:03;6.13;;;4.60;;
16512;SDS011;8369;48.030;11.598;2022-08-18T01:31:37;6.63;;;4.65;;
16512;SDS011;8369;48.030;11.598;2022-08-18T01:34:12;4.95;;;3.95;;
16512;SDS011;8369;48.030;11.598;2022-08-18T01:36:38;9.02;;;4.40;;
16512;SDS011;8369;48.030;11.598;2022-08-18T01:39:07;4.43;;;4.03;;
16512;SDS011;8369;48.030;11.598;2022-08-18T01:41:36;5.03;;;4.35;;
16512;SDS011;8369;48.030;11.598;2022-08-18T01:44:02;5.72;;;4.25;;
16512;SDS011;8369;48.030;11.598;2022-08-18T01:46:30;4.78;;;4.05;;
16512;SDS011;8369;48.030;11.598;2022-08-18T01:48:57;6.95;;;4.85;;
16512;SDS011;8369;48.030;11.598;2022-08-18T01:51:28;4.72;;;4.00;;
16512;SDS011;8369;48.030;11.598;2022-08-18T01:53:56;5.10;;;4.40;;
16512;SDS011;8369;48.030;11.598;2022-08-18T01:56:26;6.20;;;4.38;;
16512;SDS011;8369;48.030;11.598;2022-08-18T01:58:52;4.82;;;4.30;;
16512;SDS011;8369;48.030;11.598;2022-08-18T02:01:20;6.22;;;4.30;;
16512;SDS011;8369;48.030;11.598;2022-08-18T02:03:52;5.25;;;3.90;;
16512;SDS011;8369;48.030;11.598;2022-08-18T02:06:23;7.03;;;3.72;;
16512;SDS011;8369;48.030;11.598;2022-08-18T02:08:50;4.60;;;4.07;;
16512;SDS011;8369;48.030;11.598;2022-08-18T02:11:16;5.28;;;4.20;;
16512;SDS011;8369;48.030;11.598;2022-08-18T02:13:41;4.63;;;3.70;;
16512;SDS011;8369;48.030;11.598;2022-08-18T02:16:08;5.00;;;4.00;;
16512;SDS011;8369;48.030;11.598;2022-08-18T02:18:35;4.47;;;4.00;;
16512;SDS011;8369;48.030;11.598;2022-08-18T02:21:07;5.10;;;3.90;;
16512;SDS011;8369;48.030;11.598;2022-08-18T02:23:38;5.03;;;3.92;;
16512;SDS011;8369;48.030;11.598;2022-08-18T02:26:07;4.93;;;3.55;;
16512;SDS011;8369;48.030;11.598;2022-08-18T02:28:35;4.93;;;4.10;;
16512;SDS011;8369;48.030;11.598;2022-08-18T02:31:02;4.45;;;3.92;;
16512;SDS011;8369;48.030;11.598;2022-08-18T02:33:39;3.60;;;3.28;;
16512;SDS011;8369;48.030;11.598;2022-08-18T02:36:08;4.25;;;3.85;;
16512;SDS011;8369;48.030;11.598;2022-08-18T02:38:34;4.00;;;3.50;;
16512;SDS011;8369;48.030;11.598;2022-08-18T02:41:02;4.43;;;3.65;;
16512;SDS011;8369;48.030;11.598;2022-08-18T02:43:30;4.28;;;3.75;;
16512;SDS011;8369;48.030;11.598;2022-08-18T02:45:57;3.92;;;3.10;;
16512;SDS011;8369;48.030;11.598;2022-08-18T02:48:23;5.03;;;3.22;;
16512;SDS011;8369;48.030;11.598;2022-08-18T02:51:07;3.40;;;3.10;;
16512;SDS011;8369;48.030;11.598;2022-08-18T02:53:42;4.00;;;3.42;;
16512;SDS011;8369;48.030;11.598;2022-08-18T02:58:45;3.95;;;3.58;;
16512;SDS011;8369;48.030;11.598;2022-08-18T03:01:11;5.45;;;3.58;;
16512;SDS011;8369;48.030;11.598;2022-08-18T03:03:37;3.58;;;3.28;;
16512;SDS011;8369;48.030;11.598;2022-08-18T03:06:03;4.70;;;3.42;;
16512;SDS011;8369;48.030;11.598;2022-08-18T03:08:30;4.38;;;3.60;;
16512;SDS011;8369;48.030;11.598;2022-08-18T03:10:59;5.10;;;3.40;;
16512;SDS011;8369;48.030;11.598;2022-08-18T03:13:25;4.68;;;3.40;;
16512;SDS011;8369;48.030;11.598;2022-08-18T03:15:54;4.10;;;3.67;;
16512;SDS011;8369;48.030;11.598;2022-08-18T03:18:21;4.45;;;3.60;;
16512;SDS011;8369;48.030;11.598;2022-08-18T03:20:48;4.13;;;3.60;;
16512;SDS011;8369;48.030;11.598;2022-08-18T03:23:15;3.97;;;3.28;;
16512;SDS011;8369;48.030;11.598;2022-08-18T03:25:42;6.43;;;3.78;;
16512;SDS011;8369;48.030;11.598;2022-08-18T03:28:12;4.80;;;3.33;;
16512;SDS011;8369;48.030;11.598;2022-08-18T03:30:39;3.72;;;3.38;;
16512;SDS011;8369;48.030;11.598;2022-08-18T03:33:06;4.15;;;3.40;;
16512;SDS011;8369;48.030;11.598;2022-08-18T03:35:33;3.33;;;3.03;;
16512;SDS011;8369;48.030;11.598;2022-08-18T03:38:01;6.15;;;3.50;;
16512;SDS011;8369;48.030;11.598;2022-08-18T03:40:27;3.97;;;3.50;;
16512;SDS011;8369;48.030;11.598;2022-08-18T03:42:53;4.35;;;3.30;;
16512;SDS011;8369;48.030;11.598;2022-08-18T03:45:19;5.65;;;3.40;;
16512;SDS011;8369;48.030;11.598;2022-08-18T03:47:46;5.63;;;3.70;;
16512;SDS011;8369;48.030;11.598;2022-08-18T03:50:15;3.47;;;3.15;;
16512;SDS011;8369;48.030;11.598;2022-08-18T03:52:43;4.07;;;3.45;;
16512;SDS011;8369;48.030;11.598;2022-08-18T03:55:13;4.88;;;3.63;;
16512;SDS011;8369;48.030;11.598;2022-08-18T03:57:40;7.22;;;3.55;;
16512;SDS011;8369;48.030;11.598;2022-08-18T04:00:07;3.83;;;3.30;;
16512;SDS011;8369;48.030;11.598;2022-08-18T04:02:36;4.68;;;3.55;;
16512;SDS011;8369;48.030;11.598;2022-08-18T04:05:06;4.38;;;3.53;;
16512;SDS011;8369;48.030;11.598;2022-08-18T04:07:37;3.60;;;3.25;;
16512;SDS011;8369;48.030;11.598;2022-08-18T04:10:03;5.32;;;3.70;;
16512;SDS011;8369;48.030;11.598;2022-08-18T04:12:29;4.05;;;3.65;;
16512;SDS011;8369;48.030;11.598;2022-08-18T04:15:01;4.78;;;3.65;;
16512;SDS011;8369;48.030;11.598;2022-08-18T04:17:27;4.55;;;3.45;;
16512;SDS011;8369;48.030;11.598;2022-08-18T04:19:54;3.58;;;3.03;;
16512;SDS011;8369;48.030;11.598;2022-08-18T04:22:20;4.05;;;3.42;;
16512;SDS011;8369;48.030;11.598;2022-08-18T04:24:47;5.05;;;3.97;;
16512;SDS011;8369;48.030;11.598;2022-08-18T04:27:18;3.75;;;3.33;;
16512;SDS011;8369;48.030;11.598;2022-08-18T04:29:48;5.32;;;3.50;;
16512;SDS011;8369;48.030;11.598;2022-08-18T04:32:14;6.47;;;3.65;;
16512;SDS011;8369;48.030;11.598;2022-08-18T04:34:40;4.95;;;3.80;;
16512;SDS011;8369;48.030;11.598;2022-08-18T04:37:07;4.03;;;3.45;;
16512;SDS011;8369;48.030;11.598;2022-08-18T04:39:33;4.97;;;3.70;;
16512;SDS011;8369;48.030;11.598;2022-08-18T04:41:59;8.35;;;4.38;;
16512;SDS011;8369;48.030;11.598;2022-08-18T04:44:28;5.40;;;3.50;;
16512;SDS011;8369;48.030;11.598;2022-08-18T04:46:54;5.68;;;3.60;;
16512;SDS011;8369;48.030;11.598;2022-08-18T04:49:24;4.97;;;3.75;;
16512;SDS011;8369;48.030;11.598;2022-08-18T04:51:53;4.70;;;3.70;;
16512;SDS011;8369;48.030;11.598;2022-08-18T04:54:39;4.18;;;3.50;;
16512;SDS011;8369;48.030;11.598;2022-08-18T04:57:06;4.50;;;4.07;;
16512;SDS011;8369;48.030;11.598;2022-08-18T04:59:43;4.32;;;3.42;;
16512;SDS011;8369;48.030;11.598;2022-08-18T05:02:14;6.43;;;3.95;;
16512;SDS011;8369;48.030;11.598;2022-08-18T05:04:42;4.47;;;3.80;;
16512;SDS011;8369;48.030;11.598;2022-08-18T05:07:14;3.92;;;3.47;;
16512;SDS011;8369;48.030;11.598;2022-08-18T05:09:42;5.95;;;3.75;;
16512;SDS011;8369;48.030;11.598;2022-08-18T05:12:10;4.57;;;3.50;;
16512;SDS011;8369;48.030;11.598;2022-08-18T05:14:42;4.47;;;3.90;;
16512;SDS011;8369;48.030;11.598;2022-08-18T05:17:09;6.85;;;4.07;;
16512;SDS011;8369;48.030;11.598;2022-08-18T05:19:36;5.00;;;3.60;;
16512;SDS011;8369;48.030;11.598;2022-08-18T05:22:02;9.40;;;4.10;;
16512;SDS011;8369;48.030;11.598;2022-08-18T05:24:31;5.13;;;4.15;;
16512;SDS011;8369;48.030;11.598;2022-08-18T05:26:59;4.50;;;3.92;;
16512;SDS011;8369;48.030;11.598;2022-08-18T05:29:25;8.43;;;4.32;;
16512;SDS011;8369;48.030;11.598;2022-08-18T05:31:52;5.72;;;3.53;;
16512;SDS011;8369;48.030;11.598;2022-08-18T05:34:20;6.03;;;3.70;;
16512;SDS011;8369;48.030;11.598;2022-08-18T05:42:04;5.35;;;4.05;;
16512;SDS011;8369;48.030;11.598;2022-08-18T05:44:40;4.95;;;3.58;;
16512;SDS011;8369;48.030;11.598;2022-08-18T05:49:38;4.63;;;3.80;;
16512;SDS011;8369;48.030;11.598;2022-08-18T05:52:07;5.47;;;3.97;;
16512;SDS011;8369;48.030;11.598;2022-08-18T05:54:40;4.07;;;3.60;;
16512;SDS011;8369;48.030;11.598;2022-08-18T05:57:32;5.13;;;3.97;;
16512;SDS011;8369;48.030;11.598;2022-08-18T06:00:08;4.30;;;3.35;;
16512;SDS011;8369;48.030;11.598;2022-08-18T06:02:39;5.00;;;3.50;;
16512;SDS011;8369;48.030;11.598;2022-08-18T06:05:08;4.00;;;3.42;;
16512;SDS011;8369;48.030;11.598;2022-08-18T06:07:42;4.32;;;3.75;;
16512;SDS011;8369;48.030;11.598;2022-08-18T06:10:11;4.30;;;3.85;;
16512;SDS011;8369;48.030;11.598;2022-08-18T06:12:43;4.07;;;3.53;;
16512;SDS011;8369;48.030;11.598;2022-08-18T06:15:22;4.20;;;3.65;;
16512;SDS011;8369;48.030;11.598;2022-08-18T06:23:25;3.95;;;3.40;;
16512;SDS011;8369;48.030;11.598;2022-08-18T06:31:58;4.60;;;3.28;;
16512;SDS011;8369;48.030;11.598;2022-08-18T06:37:38;4.93;;;3.83;;
16512;SDS011;8369;48.030;11.598;2022-08-18T06:40:57;5.30;;;3.35;;
16512;SDS011;8369;48.030;11.598;2022-08-18T06:43:33;3.80;;;3.35;;
16512;SDS011;8369;48.030;11.598;2022-08-18T06:46:05;4.20;;;3.80;;
16512;SDS011;8369;48.030;11.598;2022-08-18T06:48:39;4.63;;;3.75;;
16512;SDS011;8369;48.030;11.598;2022-08-18T06:51:18;5.30;;;3.42;;
16512;SDS011;8369;48.030;11.598;2022-08-18T06:53:54;4.40;;;4.00;;
16512;SDS011;8369;48.030;11.598;2022-08-18T06:56:44;4.88;;;3.65;;
16512;SDS011;8369;48.030;11.598;2022-08-18T06:59:15;5.50;;;3.83;;
16512;SDS011;8369;48.030;11.598;2022-08-18T07:01:45;5.13;;;3.95;;
16512;SDS011;8369;48.030;11.598;2022-08-18T07:07:03;4.90;;;3.70;;
16512;SDS011;8369;48.030;11.598;2022-08-18T07:09:39;3.80;;;3.33;;
16512;SDS011;8369;48.030;11.598;2022-08-18T07:12:09;4.53;;;3.90;;
16512;SDS011;8369;48.030;11.598;2022-08-18T07:14:43;3.92;;;3.53;;
16512;SDS011;8369;48.030;11.598;2022-08-18T07:17:12;4.13;;;3.47;;
16512;SDS011;8369;48.030;11.598;2022-08-18T07:19:53;5.25;;;4.20;;
16512;SDS011;8369;48.030;11.598;2022-08-18T07:22:20;6.45;;;4.22;;
16512;SDS011;8369;48.030;11.598;2022-08-18T07:24:48;5.82;;;4.05;;
16512;SDS011;8369;48.030;11.598;2022-08-18T07:27:19;5.97;;;3.78;;
16512;SDS011;8369;48.030;11.598;2022-08-18T07:30:12;4.82;;;3.88;;
16512;SDS011;8369;48.030;11.598;2022-08-18T07:33:08;5.22;;;3.60;;
16512;SDS011;8369;48.030;11.598;2022-08-18T07:35:44;4.55;;;3.88;;
16512;SDS011;8369;48.030;11.598;2022-08-18T07:38:21;4.15;;;3.75;;
16512;SDS011;8369;48.030;11.598;2022-08-18T07:48:54;4.85;;;3.83;;
16512;SDS011;8369;48.030;11.598;2022-08-18T07:51:24;6.03;;;4.07;;
16512;SDS011;8369;48.030;11.598;2022-08-18T07:57:09;5.05;;;4.03;;
16512;SDS011;8369;48.030;11.598;2022-08-18T07:59:54;4.30;;;3.90;;
16512;SDS011;8369;48.030;11.598;2022-08-18T08:08:11;5.25;;;3.70;;
16512;SDS011;8369;48.030;11.598;2022-08-18T08:16:25;4.28;;;3.85;;
16512;SDS011;8369;48.030;11.598;2022-08-18T08:21:36;4.15;;;3.75;;
16512;SDS011;8369;48.030;11.598;2022-08-18T08:24:31;6.22;;;3.70;;
16512;SDS011;8369;48.030;11.598;2022-08-18T08:32:32;5.28;;;3.75;;
16512;SDS011;8369;48.030;11.598;2022-08-18T08:35:14;5.45;;;4.43;;
16512;SDS011;8369;48.030;11.598;2022-08-18T08:37:51;5.70;;;4.05;;
16512;SDS011;8369;48.030;11.598;2022-08-18T08:40:27;4.90;;;3.60;;
16512;SDS011;8369;48.030;11.598;2022-08-18T08:43:06;5.00;;;4.20;;
16512;SDS011;8369;48.030;11.598;2022-08-18T08:45:52;3.78;;;3.38;;
16512;SDS011;8369;48.030;11.598;2022-08-18T08:48:28;4.80;;;4.15;;
16512;SDS011;8369;48.030;11.598;2022-08-18T08:51:02;5.05;;;4.35;;
16512;SDS011;8369;48.030;11.598;2022-08-18T08:53:51;4.75;;;4.25;;
16512;SDS011;8369;48.030;11.598;2022-08-18T08:56:27;5.32;;;3.97;;
16512;SDS011;8369;48.030;11.598;2022-08-18T08:58:59;4.78;;;4.20;;
16512;SDS011;8369;48.030;11.598;2022-08-18T09:04:29;4.68;;;4.10;;
16512;SDS011;8369;48.030;11.598;2022-08-18T09:21:52;5.95;;;4.30;;
16512;SDS011;8369;48.030;11.598;2022-08-18T09:24:19;4.50;;;4.10;;
16512;SDS011;8369;48.030;11.598;2022-08-18T09:29:58;9.32;;;5.60;;
16512;SDS011;8369;48.030;11.598;2022-08-18T09:37:48;5.50;;;4.88;;
16512;SDS011;8369;48.030;11.598;2022-08-18T09:41:03;4.70;;;4.20;;
16512;SDS011;8369;48.030;11.598;2022-08-18T09:43:59;4.85;;;4.35;;
16512;SDS011;8369;48.030;11.598;2022-08-18T09:51:52;4.85;;;4.30;;
16512;SDS011;8369;48.030;11.598;2022-08-18T09:54:23;5.85;;;4.90;;
16512;SDS011;8369;48.030;11.598;2022-08-18T10:07:45;6.43;;;4.60;;
16512;SDS011;8369;48.030;11.598;2022-08-18T10:23:56;5.15;;;4.53;;
16512;SDS011;8369;48.030;11.598;2022-08-18T10:31:28;5.07;;;4.57;;
16512;SDS011;8369;48.030;11.598;2022-08-18T10:34:06;5.65;;;4.88;;
16512;SDS011;8369;48.030;11.598;2022-08-18T10:36:55;5.82;;;5.32;;
16512;SDS011;8369;48.030;11.598;2022-08-18T10:44:46;5.50;;;4.90;;
16512;SDS011;8369;48.030;11.598;2022-08-18T10:47:27;5.68;;;4.90;;
16512;SDS011;8369;48.030;11.598;2022-08-18T10:50:01;7.28;;;4.80;;
16512;SDS011;8369;48.030;11.598;2022-08-18T11:06:38;5.90;;;5.30;;
16512;SDS011;8369;48.030;11.598;2022-08-18T11:09:08;6.82;;;4.85;;
16512;SDS011;8369;48.030;11.598;2022-08-18T11:11:42;6.28;;;5.18;;
16512;SDS011;8369;48.030;11.598;2022-08-18T11:17:15;5.43;;;4.93;;
16512;SDS011;8369;48.030;11.598;2022-08-18T11:19:49;5.28;;;4.78;;
16512;SDS011;8369;48.030;11.598;2022-08-18T11:22:23;5.88;;;5.28;;
16512;SDS011;8369;48.030;11.598;2022-08-18T11:24:51;5.95;;;5.13;;
16512;SDS011;8369;48.030;11.598;2022-08-18T11:29:45;5.93;;;5.32;;
16512;SDS011;8369;48.030;11.598;2022-08-18T11:40:38;7.00;;;5.40;;
16512;SDS011;8369;48.030;11.598;2022-08-18T11:45:50;6.47;;;5.35;;
16512;SDS011;8369;48.030;11.598;2022-08-18T12:12:14;6.28;;;5.63;;
16512;SDS011;8369;48.030;11.598;2022-08-18T12:14:57;7.03;;;5.72;;
16512;SDS011;8369;48.030;11.598;2022-08-18T12:17:23;7.97;;;6.10;;
16512;SDS011;8369;48.030;11.598;2022-08-18T12:19:50;7.32;;;6.18;;
16512;SDS011;8369;48.030;11.598;2022-08-18T12:22:21;7.03;;;5.68;;
16512;SDS011;8369;48.030;11.598;2022-08-18T12:24:49;6.03;;;5.32;;
16512;SDS011;8369;48.030;11.598;2022-08-18T12:27:17;7.03;;;6.18;;
16512;SDS011;8369;48.030;11.598;2022-08-18T12:29:52;6.82;;;6.05;;
16512;SDS011;8369;48.030;11.598;2022-08-18T12:32:20;6.32;;;5.72;;
16512;SDS011;8369;48.030;11.598;2022-08-18T12:34:48;6.05;;;5.30;;
16512;SDS011;8369;48.030;11.598;2022-08-18T12:37:20;6.35;;;5.72;;
16512;SDS011;8369;48.030;11.598;2022-08-18T12:39:49;8.32;;;5.70;;
16512;SDS011;8369;48.030;11.598;2022-08-18T12:42:16;6.38;;;5.78;;
16512;SDS011;8369;48.030;11.598;2022-08-18T12:44:42;9.98;;;5.40;;
16512;SDS011;8369;48.030;11.598;2022-08-18T12:47:15;5.68;;;5.15;;
16512;SDS011;8369;48.030;11.598;2022-08-18T12:49:45;7.75;;;5.35;;
16512;SDS011;8369;48.030;11.598;2022-08-18T12:52:11;5.50;;;5.00;;
16512;SDS011;8369;48.030;11.598;2022-08-18T12:54:37;8.75;;;5.65;;
16512;SDS011;8369;48.030;11.598;2022-08-18T12:57:07;5.50;;;5.00;;
16512;SDS011;8369;48.030;11.598;2022-08-18T12:59:42;5.85;;;5.15;;
16512;SDS011;8369;48.030;11.598;2022-08-18T13:02:08;6.47;;;5.50;;
16512;SDS011;8369;48.030;11.598;2022-08-18T13:04:35;6.03;;;5.20;;
16512;SDS011;8369;48.030;11.598;2022-08-18T13:07:01;8.20;;;5.60;;
16512;SDS011;8369;48.030;11.598;2022-08-18T13:09:30;7.25;;;5.40;;
16512;SDS011;8369;48.030;11.598;2022-08-18T13:11:58;6.72;;;5.03;;
16512;SDS011;8369;48.030;11.598;2022-08-18T13:14:24;5.70;;;5.10;;
16512;SDS011;8369;48.030;11.598;2022-08-18T13:16:50;6.95;;;5.20;;
16512;SDS011;8369;48.030;11.598;2022-08-18T13:19:17;5.85;;;5.25;;
16512;SDS011;8369;48.030;11.598;2022-08-18T13:21:43;6.97;;;5.60;;
16512;SDS011;8369;48.030;11.598;2022-08-18T13:24:12;5.43;;;4.93;;
16512;SDS011;8369;48.030;11.598;2022-08-18T13:26:41;8.52;;;5.32;;
16512;SDS011;8369;48.030;11.598;2022-08-18T13:29:09;6.68;;;5.53;;
16512;SDS011;8369;48.030;11.598;2022-08-18T13:31:35;6.43;;;5.78;;
16512;SDS011;8369;48.030;11.598;2022-08-18T13:34:02;5.80;;;5.20;;
16512;SDS011;8369;48.030;11.598;2022-08-18T13:36:33;6.53;;;5.50;;
16512;SDS011;8369;48.030;11.598;2022-08-18T13:39:21;6.00;;;5.07;;
16512;SDS011;8369;48.030;11.598;2022-08-18T13:41:51;7.68;;;5.55;;
16512;SDS011;8369;48.030;11.598;2022-08-18T13:44:21;7.90;;;5.25;;
16512;SDS011;8369;48.030;11.598;2022-08-18T13:46:55;6.75;;;5.78;;
16512;SDS011;8369;48.030;11.598;2022-08-18T13:49:22;6.50;;;5.82;;
16512;SDS011;8369;48.030;11.598;2022-08-18T13:51:54;6.05;;;5.05;;
16512;SDS011;8369;48.030;11.598;2022-08-18T13:54:30;8.32;;;6.00;;
16512;SDS011;8369;48.030;11.598;2022-08-18T13:57:03;7.47;;;6.00;;
16512;SDS011;8369;48.030;11.598;2022-08-18T13:59:29;5.80;;;5.20;;
16512;SDS011;8369;48.030;11.598;2022-08-18T14:02:02;7.63;;;5.65;;
16512;SDS011;8369;48.030;11.598;2022-08-18T14:04:33;10.82;;;5.55;;
16512;SDS011;8369;48.030;11.598;2022-08-18T14:07:03;6.45;;;5.30;;
16512;SDS011;8369;48.030;11.598;2022-08-18T14:09:31;8.82;;;5.50;;
16512;SDS011;8369;48.030;11.598;2022-08-18T14:11:57;5.97;;;5.20;;
16512;SDS011;8369;48.030;11.598;2022-08-18T14:14:24;7.35;;;5.78;;
16512;SDS011;8369;48.030;11.598;2022-08-18T14:16:50;5.85;;;5.25;;
16512;SDS011;8369;48.030;11.598;2022-08-18T14:19:15;8.05;;;5.18;;
16512;SDS011;8369;48.030;11.598;2022-08-18T14:21:59;12.25;;;6.90;;
16512;SDS011;8369;48.030;11.598;2022-08-18T14:24:44;7.43;;;5.53;;
16512;SDS011;8369;48.030;11.598;2022-08-18T14:27:38;5.97;;;5.38;;
16512;SDS011;8369;48.030;11.598;2022-08-18T14:30:10;6.45;;;5.05;;
16512;SDS011;8369;48.030;11.598;2022-08-18T14:32:39;7.90;;;5.70;;
16512;SDS011;8369;48.030;11.598;2022-08-18T14:35:12;6.90;;;5.95;;
16512;SDS011;8369;48.030;11.598;2022-08-18T14:37:40;9.82;;;5.55;;
16512;SDS011;8369;48.030;11.598;2022-08-18T14:40:07;7.30;;;5.57;;
16512;SDS011;8369;48.030;11.598;2022-08-18T14:42:36;8.00;;;5.68;;
16512;SDS011;8369;48.030;11.598;2022-08-18T14:45:11;6.50;;;5.78;;
16512;SDS011;8369;48.030;11.598;2022-08-18T14:47:45;9.02;;;6.15;;
16512;SDS011;8369;48.030;11.598;2022-08-18T14:50:11;6.75;;;5.43;;
16512;SDS011;8369;48.030;11.598;2022-08-18T14:52:40;6.80;;;5.78;;
16512;SDS011;8369;48.030;11.598;2022-08-18T14:55:10;6.65;;;5.32;;
16512;SDS011;8369;48.030;11.598;2022-08-18T14:57:37;9.90;;;6.20;;
16512;SDS011;8369;48.030;11.598;2022-08-18T15:00:07;6.72;;;5.35;;
16512;SDS011;8369;48.030;11.598;2022-08-18T15:02:42;6.82;;;6.00;;
16512;SDS011;8369;48.030;11.598;2022-08-18T15:05:10;7.20;;;5.70;;
16512;SDS011;8369;48.030;11.598;2022-08-18T15:07:50;8.65;;;5.80;;
16512;SDS011;8369;48.030;11.598;2022-08-18T15:10:17;7.50;;;5.85;;
16512;SDS011;8369;48.030;11.598;2022-08-18T15:12:43;7.82;;;5.82;;
16512;SDS011;8369;48.030;11.598;2022-08-18T15:15:14;8.98;;;5.43;;
16512;SDS011;8369;48.030;11.598;2022-08-18T15:17:45;6.03;;;5.43;;
16512;SDS011;8369;48.030;11.598;2022-08-18T15:20:16;6.30;;;5.70;;
16512;SDS011;8369;48.030;11.598;2022-08-18T15:22:43;8.13;;;5.80;;
16512;SDS011;8369;48.030;11.598;2022-08-18T15:25:29;5.60;;;5.10;;
16512;SDS011;8369;48.030;11.598;2022-08-18T15:28:32;7.72;;;6.18;;
16512;SDS011;8369;48.030;11.598;2022-08-18T15:31:01;6.57;;;5.85;;
16512;SDS011;8369;48.030;11.598;2022-08-18T15:33:26;7.90;;;6.05;;
16512;SDS011;8369;48.030;11.598;2022-08-18T15:35:52;7.03;;;5.05;;
16512;SDS011;8369;48.030;11.598;2022-08-18T15:38:23;5.95;;;5.35;;
16512;SDS011;8369;48.030;11.598;2022-08-18T15:40:50;8.40;;;5.93;;
16512;SDS011;8369;48.030;11.598;2022-08-18T15:43:27;7.22;;;5.75;;
16512;SDS011;8369;48.030;11.598;2022-08-18T15:45:55;7.15;;;5.75;;
16512;SDS011;8369;48.030;11.598;2022-08-18T15:48:21;7.93;;;5.60;;
16512;SDS011;8369;48.030;11.598;2022-08-18T15:50:51;8.65;;;5.57;;
16512;SDS011;8369;48.030;11.598;2022-08-18T15:53:19;6.95;;;5.60;;
16512;SDS011;8369;48.030;11.598;2022-08-18T15:55:49;18.90;;;6.57;;
16512;SDS011;8369;48.030;11.598;2022-08-18T15:58:18;6.22;;;5.40;;
16512;SDS011;8369;48.030;11.598;2022-08-18T16:00:46;7.90;;;5.70;;
16512;SDS011;8369;48.030;11.598;2022-08-18T16:03:13;8.05;;;5.85;;
16512;SDS011;8369;48.030;11.598;2022-08-18T16:05:52;7.70;;;5.57;;
16512;SDS011;8369;48.030;11.598;2022-08-18T16:08:19;6.97;;;5.50;;
16512;SDS011;8369;48.030;11.598;2022-08-18T16:10:49;7.75;;;6.22;;
16512;SDS011;8369;48.030;11.598;2022-08-18T16:13:16;6.60;;;5.95;;
16512;SDS011;8369;48.030;11.598;2022-08-18T16:15:43;6.38;;;5.70;;
16512;SDS011;8369;48.030;11.598;2022-08-18T16:18:15;11.05;;;6.45;;
16512;SDS011;8369;48.030;11.598;2022-08-18T16:20:46;6.53;;;5.93;;
16512;SDS011;8369;48.030;11.598;2022-08-18T16:23:12;5.95;;;5.25;;
16512;SDS011;8369;48.030;11.598;2022-08-18T16:25:41;6.43;;;5.32;;
16512;SDS011;8369;48.030;11.598;2022-08-18T16:28:09;6.75;;;5.82;;
16512;SDS011;8369;48.030;11.598;2022-08-18T16:30:40;6.55;;;5.95;;
16512;SDS011;8369;48.030;11.598;2022-08-18T16:33:08;14.73;;;5.35;;
16512;SDS011;8369;48.030;11.598;2022-08-18T16:35:39;8.05;;;6.13;;
16512;SDS011;8369;48.030;11.598;2022-08-18T16:38:07;7.85;;;5.70;;
16512;SDS011;8369;48.030;11.598;2022-08-18T16:40:36;7.38;;;5.57;;
16512;SDS011;8369;48.030;11.598;2022-08-18T16:43:02;6.75;;;6.05;;
16512;SDS011;8369;48.030;11.598;2022-08-18T16:45:31;8.10;;;6.38;;
16512;SDS011;8369;48.030;11.598;2022-08-18T16:48:00;7.28;;;5.82;;
16512;SDS011;8369;48.030;11.598;2022-08-18T16:50:26;7.70;;;5.78;;
16512;SDS011;8369;48.030;11.598;2022-08-18T16:52:53;6.63;;;5.55;;
16512;SDS011;8369;48.030;11.598;2022-08-18T16:55:19;6.88;;;5.47;;
16512;SDS011;8369;48.030;11.598;2022-08-18T16:57:45;7.15;;;5.93;;
16512;SDS011;8369;48.030;11.598;2022-08-18T17:00:30;7.07;;;5.50;;
16512;SDS011;8369;48.030;11.598;2022-08-18T17:03:16;9.10;;;6.00;;
16512;SDS011;8369;48.030;11.598;2022-08-18T17:06:12;6.30;;;5.65;;
16512;SDS011;8369;48.030;11.598;2022-08-18T17:08:42;7.38;;;6.00;;
16512;SDS011;8369;48.030;11.598;2022-08-18T17:11:10;6.70;;;5.03;;
16512;SDS011;8369;48.030;11.598;2022-08-18T17:13:38;7.55;;;5.80;;
16512;SDS011;8369;48.030;11.598;2022-08-18T17:16:05;7.18;;;6.10;;
16512;SDS011;8369;48.030;11.598;2022-08-18T17:18:32;7.07;;;6.20;;
16512;SDS011;8369;48.030;11.598;2022-08-18T17:21:08;8.50;;;5.60;;
16512;SDS011;8369;48.030;11.598;2022-08-18T17:23:42;7.18;;;6.47;;
16512;SDS011;8369;48.030;11.598;2022-08-18T17:26:14;7.88;;;6.22;;
16512;SDS011;8369;48.030;11.598;2022-08-18T17:28:53;8.52;;;5.93;;
16512;SDS011;8369;48.030;11.598;2022-08-18T17:31:27;6.90;;;6.13;;
16512;SDS011;8369;48.030;11.598;2022-08-18T17:33:56;7.22;;;6.13;;
16512;SDS011;8369;48.030;11.598;2022-08-18T17:36:32;6.53;;;5.20;;
16512;SDS011;8369;48.030;11.598;2022-08-18T17:39:07;6.10;;;4.95;;
16512;SDS011;8369;48.030;11.598;2022-08-18T17:41:38;4.88;;;3.95;;
16512;SDS011;8369;48.030;11.598;2022-08-18T17:44:24;5.97;;;4.15;;
16512;SDS011;8369;48.030;11.598;2022-08-18T17:46:55;4.30;;;3.67;;
16512;SDS011;8369;48.030;11.598;2022-08-18T17:49:26;5.05;;;4.47;;
16512;SDS011;8369;48.030;11.598;2022-08-18T17:52:37;5.05;;;4.20;;
16512;SDS011;8369;48.030;11.598;2022-08-18T17:55:13;5.57;;;3.97;;
16512;SDS011;8369;48.030;11.598;2022-08-18T17:57:55;4.18;;;3.78;;
16512;SDS011;8369;48.030;11.598;2022-08-18T18:00:27;4.65;;;3.83;;
16512;SDS011;8369;48.030;11.598;2022-08-18T18:02:57;3.80;;;3.28;;
16512;SDS011;8369;48.030;11.598;2022-08-18T18:05:25;4.40;;;3.45;;
16512;SDS011;8369;48.030;11.598;2022-08-18T18:08:00;3.05;;;2.75;;
16512;SDS011;8369;48.030;11.598;2022-08-18T18:10:40;4.07;;;3.30;;
16512;SDS011;8369;48.030;11.598;2022-08-18T18:15:38;4.30;;;3.80;;